Terminal Aerodrome Forecast
Issued by NWS Houston/Galveston TX

Home | Current Version | Previous Version | Text Only | Print | Product List | Glossary On
Versions: 1 2 3 4 5 6 7 8 9 10 11 12 13 14 15 16 17 18 19 20 21 22 23 24 25
000
FTUS44 KHGX 251526 AAA
TAFHOU
TAF AMD
KHOU 251526Z 2515/2612 26005KT P6SM VCSH SCT022 SCT250
     FM251700 VRB05KT P6SM VCTS BKN035CB
      TEMPO 2519/2523 TSRA
     FM260200 VRB04KT P6SM VCSH SCT050
     FM260600 VRB02KT P6SM BKN250=

USA.gov is the U.S. government's official web portal to all federal, state and local government web resources and services.